Time;durP1;ratioP1;P1;durP2;ratioP2;P2;SDS_P1;SDS_P2;PMS_P1;PMS_P2;Temp;Humidity;BMP_temperature;BMP_pressure;BME280_temperature;BME280_humidity;BME280_pressure;Samples;Min_cycle;Max_cycle;Signal;HPM_P1;HPM_P2
2023/05/07 00:01:46;;;;;;;33.53;26.35;;;11.20;99.90;;;;;;4940116;28;20555;-63
2023/05/07 00:04:13;;;;;;;33.35;26.20;;;11.20;99.90;;;;;;4955648;28;20051;-64
2023/05/07 00:06:39;;;;;;;31.27;26.85;;;11.30;99.90;;;;;;4954974;28;20114;-63
2023/05/07 00:09:06;;;;;;;32.05;25.92;;;11.20;99.90;;;;;;4955393;28;20982;-64
2023/05/07 00:11:33;;;;;;;37.13;29.58;;;11.20;99.90;;;;;;4953833;28;20278;-65
2023/05/07 00:13:58;;;;;;;35.80;31.58;;;11.20;99.90;;;;;;4954308;28;20380;-63
2023/05/07 00:16:24;;;;;;;38.58;31.25;;;11.30;99.90;;;;;;4951657;28;20250;-64
2023/05/07 00:18:50;;;;;;;37.83;31.73;;;11.20;99.90;;;;;;4957319;28;20059;-63
2023/05/07 00:21:16;;;;;;;42.00;32.40;;;11.10;99.90;;;;;;4954409;28;20121;-64
2023/05/07 00:23:42;;;;;;;38.25;28.63;;;11.30;99.90;;;;;;4955113;28;20042;-64
2023/05/07 00:26:07;;;;;;;30.92;24.65;;;11.30;99.90;;;;;;4940665;28;20050;-63
2023/05/07 00:28:33;;;;;;;42.97;31.83;;;11.30;99.90;;;;;;4954097;28;20046;-65
2023/05/07 00:30:59;;;;;;;34.17;26.33;;;11.20;99.90;;;;;;4955256;28;20039;-64
2023/05/07 00:33:26;;;;;;;35.65;26.48;;;11.20;99.90;;;;;;4986085;28;20303;-64
2023/05/07 00:35:53;;;;;;;31.13;25.30;;;11.30;99.90;;;;;;4954092;28;20096;-63
2023/05/07 00:38:19;;;;;;;35.42;27.80;;;11.40;99.90;;;;;;4970149;28;20046;-64
2023/05/07 00:40:45;;;;;;;31.80;24.45;;;11.30;99.90;;;;;;4954015;28;20040;-64
2023/05/07 00:43:12;;;;;;;26.05;18.95;;;11.30;99.90;;;;;;4986219;28;20198;-63
2023/05/07 00:45:38;;;;;;;33.42;26.55;;;11.40;99.90;;;;;;4955849;28;20057;-63
2023/05/07 00:48:05;;;;;;;27.33;24.40;;;11.40;99.90;;;;;;4940646;28;21234;-64
2023/05/07 00:50:31;;;;;;;29.55;24.38;;;11.50;99.90;;;;;;4949283;28;20408;-65
2023/05/07 00:52:58;;;;;;;33.90;27.73;;;11.40;99.90;;;;;;4953916;28;20046;-63
2023/05/07 00:55:24;;;;;;;29.05;22.90;;;11.50;99.90;;;;;;4954068;28;20062;-64
2023/05/07 00:57:50;;;;;;;30.98;24.10;;;11.50;99.90;;;;;;4954087;28;20136;-63
2023/05/07 01:00:17;;;;;;;27.25;19.33;;;11.40;81.20;;;;;;4939648;28;20581;-65
2023/05/07 01:02:44;;;;;;;25.13;19.23;;;11.40;50.80;;;;;;4953595;28;20042;-65
2023/05/07 01:05:12;;;;;;;32.92;26.38;;;11.50;63.30;;;;;;4953559;28;20405;-64
2023/05/07 01:07:40;;;;;;;23.35;18.63;;;11.40;80.30;;;;;;4954468;28;20046;-63
2023/05/07 01:10:07;;;;;;;34.10;29.15;;;11.50;96.20;;;;;;4953617;28;20195;-64
2023/05/07 01:12:34;;;;;;;31.92;23.95;;;11.50;98.50;;;;;;4955528;28;20089;-64
2023/05/07 01:15:00;;;;;;;30.95;26.50;;;11.40;74.40;;;;;;4952155;28;20540;-65
2023/05/07 01:17:26;;;;;;;26.50;21.55;;;11.50;39.20;;;;;;4964715;28;20850;-64
2023/05/07 01:19:53;;;;;;;26.92;20.58;;;11.40;39.10;;;;;;4953209;28;20059;-63
2023/05/07 01:22:36;;;;;;;24.98;19.27;;;11.50;1.00;;;;;;4951663;28;20084;-64
2023/05/07 01:25:03;;;;;;;29.80;20.45;;;11.40;1.00;;;;;;4953159;28;20052;-64
2023/05/07 01:27:29;;;;;;;26.08;21.00;;;11.50;1.00;;;;;;4954180;28;20346;-64
2023/05/07 01:29:58;;;;;;;24.33;19.45;;;11.40;8.00;;;;;;4953672;28;20042;-64
2023/05/07 01:32:40;;;;;;;24.27;19.23;;;11.50;1.00;;;;;;4938270;28;20038;-64
2023/05/07 01:35:09;;;;;;;31.77;25.45;;;11.50;7.10;;;;;;4956286;28;20540;-64
2023/05/07 01:37:36;;;;;;;33.03;28.38;;;11.50;25.50;;;;;;4952662;28;20048;-64
2023/05/07 01:40:03;;;;;;;24.30;18.70;;;11.40;20.40;;;;;;4952813;28;20039;-64
2023/05/07 01:42:29;;;;;;;32.63;24.88;;;11.40;40.80;;;;;;4937675;28;20509;-64
2023/05/07 01:44:55;;;;;;;35.45;26.48;;;11.40;43.10;;;;;;4952574;28;20125;-64
2023/05/07 01:47:22;;;;;;;24.95;20.08;;;11.50;17.40;;;;;;4954641;28;20058;-63
2023/05/07 01:49:48;;;;;;;35.65;27.42;;;11.40;1.00;;;;;;4953838;28;20140;-63
2023/05/07 01:52:14;;;;;;;44.17;35.90;;;11.40;1.00;;;;;;4952984;28;20038;-66
2023/05/07 01:54:39;;;;;;;41.63;32.00;;;11.30;1.00;;;;;;4953019;28;20165;-63
2023/05/07 01:57:05;;;;;;;26.02;22.52;;;11.30;30.00;;;;;;4952568;28;20314;-64
2023/05/07 01:59:31;;;;;;;28.17;22.25;;;11.30;1.00;;;;;;4986585;28;20034;-64
2023/05/07 02:01:56;;;;;;;32.72;24.90;;;11.30;1.00;;;;;;4953749;28;20129;-63
2023/05/07 02:04:22;;;;;;;31.27;24.88;;;11.30;1.00;;;;;;4936927;28;20034;-64
2023/05/07 02:06:48;;;;;;;27.80;22.92;;;11.30;1.00;;;;;;4950301;28;20587;-64
2023/05/07 02:09:14;;;;;;;34.00;27.60;;;11.20;1.00;;;;;;4952131;28;20688;-65
2023/05/07 02:11:40;;;;;;;30.15;24.83;;;11.30;1.00;;;;;;4969366;28;20517;-64
2023/05/07 02:14:06;;;;;;;16.83;12.25;;;11.20;1.00;;;;;;4984864;28;20039;-64
2023/05/07 02:16:32;;;;;;;27.45;20.65;;;11.30;1.00;;;;;;4935725;28;20125;-64
2023/05/07 02:18:58;;;;;;;27.20;20.73;;;11.30;1.00;;;;;;4953648;28;20051;-64
2023/05/07 02:21:25;;;;;;;31.40;23.20;;;11.20;1.00;;;;;;4920503;28;20084;-65
2023/05/07 02:23:50;;;;;;;27.42;22.45;;;11.10;1.00;;;;;;4969487;28;20612;-63
2023/05/07 02:26:16;;;;;;;32.40;24.58;;;11.20;1.00;;;;;;4938629;28;20115;-64
2023/05/07 02:28:43;;;;;;;37.25;29.52;;;11.10;11.10;;;;;;4968361;28;20305;-63
2023/05/07 02:31:08;;;;;;;28.13;20.90;;;11.10;14.00;;;;;;4952041;28;20370;-64
2023/05/07 02:33:35;;;;;;;30.60;19.98;;;11.20;13.60;;;;;;4936244;28;20554;-64
2023/05/07 02:36:11;;;;;;;32.60;24.40;;;11.10;57.20;;;;;;4954384;28;20214;-63
2023/05/07 02:38:37;;;;;;;42.78;31.02;;;11.10;1.50;;;;;;4952883;28;20081;-63
2023/05/07 02:41:02;;;;;;;36.63;25.35;;;11.10;1.00;;;;;;4952364;28;20887;-65
2023/05/07 02:43:28;;;;;;;40.88;31.10;;;11.00;1.00;;;;;;4951532;28;20085;-64
2023/05/07 02:46:05;;;;;;;32.85;25.70;;;11.10;1.00;;;;;;4952688;28;20057;-63
2023/05/07 02:48:31;;;;;;;39.25;27.95;;;11.00;18.10;;;;;;4956858;28;20035;-63
2023/05/07 02:50:57;;;;;;;40.40;31.83;;;10.90;54.10;;;;;;4952607;28;20237;-63
2023/05/07 02:53:25;;;;;;;42.78;31.13;;;11.00;28.10;;;;;;4952883;28;20043;-64
2023/05/07 02:56:01;;;;;;;39.83;30.55;;;11.00;29.20;;;;;;4957530;28;20073;-64
2023/05/07 02:58:27;;;;;;;49.70;39.70;;;10.90;31.40;;;;;;4953726;28;20512;-64
2023/05/07 03:00:54;;;;;;;35.83;24.55;;;10.90;66.30;;;;;;4953858;28;20501;-63
2023/05/07 03:03:20;;;;;;;43.08;35.10;;;10.90;54.80;;;;;;4952086;28;20125;-63
2023/05/07 03:05:46;;;;;;;31.25;24.88;;;10.80;90.60;;;;;;4954099;28;20053;-64
2023/05/07 03:08:12;;;;;;;43.65;34.15;;;10.90;88.30;;;;;;4935494;28;20863;-63
2023/05/07 03:10:38;;;;;;;23.05;17.35;;;10.90;78.20;;;;;;4951842;28;20585;-63
2023/05/07 03:13:03;;;;;;;24.67;18.83;;;10.80;99.90;;;;;;4953426;28;20109;-64
2023/05/07 03:15:29;;;;;;;32.42;26.75;;;10.90;94.50;;;;;;4953846;28;20038;-64
2023/05/07 03:17:55;;;;;;;41.28;33.25;;;10.80;98.80;;;;;;4967864;28;20118;-63
2023/05/07 03:20:21;;;;;;;24.40;19.52;;;10.80;99.90;;;;;;4951278;28;20057;-64
2023/05/07 03:22:47;;;;;;;28.17;22.20;;;10.80;99.90;;;;;;4952333;28;20065;-63
2023/05/07 03:25:14;;;;;;;33.92;28.15;;;10.80;99.90;;;;;;4953388;28;20478;-63
2023/05/07 03:27:41;;;;;;;37.22;28.58;;;10.80;99.90;;;;;;4952603;28;20074;-64
2023/05/07 03:30:08;;;;;;;31.25;26.73;;;10.70;99.90;;;;;;4951930;28;20061;-64
2023/05/07 03:32:35;;;;;;;19.45;14.50;;;10.70;99.90;;;;;;4952478;28;20050;-64
2023/05/07 03:35:01;;;;;;;36.53;29.13;;;10.60;99.90;;;;;;4950687;28;20074;-63
2023/05/07 03:37:26;;;;;;;35.78;29.40;;;10.60;99.90;;;;;;4936104;28;20374;-65
2023/05/07 03:39:52;;;;;;;33.55;27.20;;;10.60;99.90;;;;;;4939108;28;20328;-63
2023/05/07 03:42:18;;;;;;;27.52;19.77;;;10.60;99.90;;;;;;4957069;28;20046;-64
2023/05/07 03:44:43;;;;;;;35.08;28.83;;;10.60;99.90;;;;;;4938858;28;20437;-63
2023/05/07 03:47:10;;;;;;;21.92;16.45;;;10.50;99.90;;;;;;4956154;28;20047;-64
2023/05/07 03:49:36;;;;;;;37.47;28.05;;;10.60;99.90;;;;;;4937820;28;20039;-64
2023/05/07 03:52:02;;;;;;;40.25;34.10;;;10.60;99.90;;;;;;4938117;28;20041;-64
2023/05/07 03:54:28;;;;;;;25.90;19.80;;;10.50;99.90;;;;;;4958145;28;20537;-64
2023/05/07 03:56:53;;;;;;;26.85;22.30;;;10.50;99.90;;;;;;4940398;28;20267;-64
2023/05/07 03:59:19;;;;;;;25.20;17.20;;;10.40;99.90;;;;;;4966299;28;20042;-64
2023/05/07 04:01:45;;;;;;;31.40;25.30;;;10.30;68.20;;;;;;4953902;28;20043;-63
2023/05/07 04:04:10;;;;;;;34.30;26.27;;;10.30;97.70;;;;;;4988583;28;20043;-64
2023/05/07 04:06:37;;;;;;;33.20;24.98;;;10.20;99.90;;;;;;4957102;28;20129;-63
2023/05/07 04:09:03;;;;;;;32.40;26.90;;;10.30;99.40;;;;;;4953507;28;20153;-64
2023/05/07 04:11:29;;;;;;;29.42;22.80;;;10.30;99.90;;;;;;4971175;28;20138;-64
2023/05/07 04:13:55;;;;;;;28.33;23.73;;;10.30;99.90;;;;;;4954005;28;20736;-64
2023/05/07 04:16:20;;;;;;;23.98;18.20;;;10.40;95.60;;;;;;4938875;28;20101;-63
2023/05/07 04:18:46;;;;;;;34.08;28.83;;;10.30;92.40;;;;;;4938282;28;20366;-63
2023/05/07 04:21:20;;;;;;;27.48;21.75;;;10.30;66.20;;;;;;4955749;28;20077;-64
2023/05/07 04:23:47;;;;;;;30.35;26.02;;;10.20;76.40;;;;;;4955216;28;20058;-63
2023/05/07 04:26:13;;;;;;;27.52;20.80;;;10.20;34.60;;;;;;4954569;28;20427;-63
2023/05/07 04:28:40;;;;;;;26.38;23.55;;;10.30;5.90;;;;;;4953878;28;20046;-63
2023/05/07 04:31:06;;;;;;;31.73;23.73;;;10.20;1.00;;;;;;4953491;28;20062;-63
2023/05/07 04:33:32;;;;;;;23.95;18.25;;;10.30;1.00;;;;;;4956511;28;20398;-63
2023/05/07 04:36:02;;;;;;;27.23;21.90;;;10.30;15.00;;;;;;4953818;28;20038;-63
2023/05/07 04:38:31;;;;;;;21.33;17.00;;;10.30;28.30;;;;;;4955246;28;20047;-63
2023/05/07 04:40:58;;;;;;;29.48;24.50;;;10.30;47.10;;;;;;4954372;28;20242;-64
2023/05/07 04:43:24;;;;;;;21.63;16.83;;;10.20;1.00;;;;;;4971794;28;20497;-64
2023/05/07 04:45:51;;;;;;;27.50;24.27;;;10.20;42.70;;;;;;4955180;28;20082;-64
2023/05/07 04:48:19;;;;;;;24.23;19.40;;;10.20;51.10;;;;;;4953789;28;20215;-65
2023/05/07 04:50:47;;;;;;;28.65;23.92;;;10.20;90.40;;;;;;4953208;28;20050;-64
2023/05/07 04:53:12;;;;;;;26.13;22.42;;;10.10;99.90;;;;;;4986873;28;20441;-64
2023/05/07 04:55:38;;;;;;;25.52;22.65;;;10.10;99.90;;;;;;4956570;28;20493;-63
2023/05/07 04:58:04;;;;;;;28.27;23.08;;;10.20;99.90;;;;;;4956772;28;20050;-63
2023/05/07 05:00:31;;;;;;;27.10;21.80;;;10.10;99.90;;;;;;4986470;28;20042;-63
2023/05/07 05:02:56;;;;;;;32.67;27.52;;;10.10;99.90;;;;;;4986542;28;20065;-64
2023/05/07 05:05:22;;;;;;;27.10;22.75;;;10.00;99.90;;;;;;4954188;28;20445;-63
2023/05/07 05:07:47;;;;;;;26.77;20.92;;;10.00;99.90;;;;;;4954088;28;20254;-63
2023/05/07 05:10:13;;;;;;;27.10;22.08;;;10.00;99.90;;;;;;4955810;28;20078;-64
2023/05/07 05:12:39;;;;;;;35.60;28.88;;;9.90;99.90;;;;;;4934125;28;20042;-63
2023/05/07 05:15:06;;;;;;;25.95;19.23;;;9.90;99.90;;;;;;4937514;28;20047;-64
2023/05/07 05:17:31;;;;;;;27.20;23.65;;;9.90;99.90;;;;;;4985268;28;20234;-63
2023/05/07 05:19:57;;;;;;;25.88;19.15;;;9.90;99.90;;;;;;4936698;28;20050;-64
2023/05/07 05:22:23;;;;;;;28.05;22.25;;;9.80;99.90;;;;;;4953502;28;20265;-63
2023/05/07 05:24:48;;;;;;;24.27;21.17;;;9.80;99.90;;;;;;4953411;28;20613;-64
2023/05/07 05:27:14;;;;;;;23.33;20.02;;;9.80;99.90;;;;;;4938362;28;20139;-64
2023/05/07 05:29:40;;;;;;;25.40;19.15;;;9.80;99.90;;;;;;4936793;28;20054;-64
2023/05/07 05:32:06;;;;;;;27.17;21.60;;;9.70;99.90;;;;;;4936801;28;20047;-64
2023/05/07 05:34:33;;;;;;;29.73;24.00;;;9.80;99.90;;;;;;4953140;28;20140;-64
2023/05/07 05:36:59;;;;;;;27.02;20.15;;;9.80;99.90;;;;;;4953000;28;20039;-64
2023/05/07 05:39:25;;;;;;;24.33;20.70;;;9.70;99.90;;;;;;4952759;28;20697;-64
2023/05/07 05:41:50;;;;;;;22.42;18.20;;;9.80;99.90;;;;;;4952881;28;20038;-63
2023/05/07 05:44:16;;;;;;;28.58;21.42;;;9.70;99.90;;;;;;4952235;28;20050;-64
2023/05/07 05:46:42;;;;;;;23.20;16.25;;;9.80;99.90;;;;;;4951320;28;20161;-63
2023/05/07 05:49:08;;;;;;;27.85;22.45;;;9.70;99.90;;;;;;4952229;28;20088;-64
2023/05/07 05:51:34;;;;;;;27.00;21.10;;;9.80;99.90;;;;;;4953159;28;20207;-64
2023/05/07 05:53:59;;;;;;;21.70;17.45;;;9.80;99.90;;;;;;4953032;28;20389;-64
2023/05/07 05:56:25;;;;;;;24.60;17.25;;;9.80;99.90;;;;;;4954759;28;20390;-63
2023/05/07 05:58:51;;;;;;;23.27;18.52;;;9.70;99.90;;;;;;4952080;28;20031;-63
2023/05/07 06:01:18;;;;;;;21.75;16.85;;;9.70;99.90;;;;;;4936931;28;20055;-64
2023/05/07 06:03:44;;;;;;;14.02;11.50;;;9.80;99.90;;;;;;4968978;28;20457;-64
2023/05/07 06:06:10;;;;;;;26.83;21.33;;;9.70;99.90;;;;;;4988742;28;20061;-63
2023/05/07 06:08:35;;;;;;;28.55;22.70;;;9.80;99.90;;;;;;4970784;28;20061;-64
2023/05/07 06:11:02;;;;;;;30.88;25.67;;;9.80;99.90;;;;;;4970795;28;20077;-63
2023/05/07 06:13:29;;;;;;;29.65;23.15;;;9.80;99.90;;;;;;4941576;28;20083;-63
2023/05/07 06:15:55;;;;;;;23.55;17.73;;;9.80;99.90;;;;;;4953310;28;20406;-63
2023/05/07 06:18:20;;;;;;;31.95;24.48;;;9.80;99.90;;;;;;4955798;28;20258;-64
2023/05/07 06:20:46;;;;;;;38.28;30.50;;;9.80;99.90;;;;;;4936262;28;20059;-64
2023/05/07 06:23:12;;;;;;;29.73;21.63;;;9.90;99.90;;;;;;4953466;28;20477;-64
2023/05/07 06:25:37;;;;;;;21.17;15.60;;;9.80;99.90;;;;;;4952549;28;20126;-63
2023/05/07 06:28:03;;;;;;;29.48;23.95;;;10.00;99.90;;;;;;4938379;28;20298;-64
2023/05/07 06:30:29;;;;;;;27.25;17.45;;;9.90;99.90;;;;;;4956040;28;20189;-64
2023/05/07 06:32:55;;;;;;;20.10;15.73;;;10.00;99.90;;;;;;4952349;28;20449;-64
2023/05/07 06:35:21;;;;;;;28.23;21.67;;;10.00;24.70;;;;;;4950498;28;20334;-64
2023/05/07 06:37:46;;;;;;;18.35;14.18;;;10.00;1.00;;;;;;4953772;28;20078;-64
2023/05/07 06:40:12;;;;;;;26.88;20.13;;;10.00;16.60;;;;;;4953286;28;20042;-63
2023/05/07 06:42:38;;;;;;;26.60;22.02;;;10.10;1.00;;;;;;4952343;28;20050;-64
2023/05/07 06:45:04;;;;;;;30.77;24.05;;;10.10;1.00;;;;;;4936028;28;20491;-63
2023/05/07 06:47:30;;;;;;;25.95;19.67;;;10.10;1.00;;;;;;4951710;28;20061;-64
2023/05/07 06:49:56;;;;;;;24.63;18.45;;;10.10;1.00;;;;;;4952957;28;20042;-63
2023/05/07 06:52:21;;;;;;;30.95;22.23;;;10.00;1.00;;;;;;4953961;28;20039;-63
2023/05/07 06:54:47;;;;;;;28.20;22.63;;;10.10;1.00;;;;;;4969471;28;20766;-65
2023/05/07 06:57:13;;;;;;;19.27;13.85;;;10.10;99.90;;;;;;4952122;28;20122;-64
2023/05/07 06:59:39;;;;;;;30.63;22.52;;;10.10;99.90;;;;;;4920947;28;20215;-64
2023/05/07 07:02:06;;;;;;;26.48;20.02;;;10.20;99.90;;;;;;4952482;28;20035;-63
2023/05/07 07:04:31;;;;;;;28.02;20.70;;;10.10;99.90;;;;;;4932721;28;20034;-63
2023/05/07 07:06:57;;;;;;;27.50;21.58;;;10.20;1.00;;;;;;4951554;28;20073;-64
2023/05/07 07:09:23;;;;;;;21.48;15.40;;;10.20;1.00;;;;;;4969574;28;20051;-63
2023/05/07 07:11:49;;;;;;;22.15;15.77;;;10.30;99.90;;;;;;4956627;28;20357;-63
2023/05/07 07:14:14;;;;;;;30.50;22.65;;;10.30;99.90;;;;;;4957279;28;20155;-64
2023/05/07 07:16:40;;;;;;;32.72;26.92;;;10.30;99.90;;;;;;4956271;28;20053;-63
2023/05/07 07:19:06;;;;;;;17.15;11.50;;;10.40;99.90;;;;;;4954817;28;20133;-64
2023/05/07 07:21:32;;;;;;;24.90;19.52;;;10.40;99.90;;;;;;4953951;28;20512;-64
2023/05/07 07:23:57;;;;;;;20.27;13.70;;;10.50;99.90;;;;;;4988759;28;20042;-64
2023/05/07 07:26:23;;;;;;;17.25;11.88;;;10.40;99.90;;;;;;4956736;28;20533;-64
2023/05/07 07:28:49;;;;;;;24.55;19.45;;;10.50;99.90;;;;;;4971031;28;20046;-63
2023/05/07 07:31:15;;;;;;;28.83;23.02;;;10.50;99.90;;;;;;4940206;28;20129;-64
2023/05/07 07:33:41;;;;;;;29.23;22.65;;;10.50;99.90;;;;;;4956349;28;20442;-64
2023/05/07 07:36:07;;;;;;;23.27;16.25;;;10.60;99.90;;;;;;4955102;28;20091;-64
2023/05/07 07:38:33;;;;;;;34.30;26.02;;;10.50;99.90;;;;;;4988174;28;20054;-64
2023/05/07 07:40:59;;;;;;;29.40;22.58;;;10.60;99.90;;;;;;4954454;28;20335;-63
2023/05/07 07:43:25;;;;;;;33.65;25.60;;;10.60;99.90;;;;;;4953780;28;20050;-64
2023/05/07 07:45:51;;;;;;;27.98;20.45;;;10.60;99.90;;;;;;4955889;28;20456;-64
2023/05/07 07:48:16;;;;;;;36.20;28.33;;;10.70;99.90;;;;;;4939033;28;20046;-63
2023/05/07 07:50:42;;;;;;;29.48;23.15;;;10.60;99.90;;;;;;4955300;28;20048;-63
2023/05/07 07:53:08;;;;;;;28.50;21.55;;;10.70;99.90;;;;;;4965122;28;20054;-64
2023/05/07 07:55:41;;;;;;;24.25;18.38;;;10.70;99.90;;;;;;4966389;28;20034;-64
2023/05/07 07:58:06;;;;;;;28.23;22.55;;;10.70;99.90;;;;;;4968875;28;20117;-64
2023/05/07 08:00:32;;;;;;;34.00;27.50;;;10.80;99.90;;;;;;4961343;28;20650;-64
2023/05/07 08:02:58;;;;;;;31.45;26.80;;;10.70;99.90;;;;;;4956443;28;20046;-63
2023/05/07 08:05:24;;;;;;;35.35;28.75;;;10.70;99.90;;;;;;4954561;28;20050;-64
2023/05/07 08:07:53;;;;;;;33.25;23.83;;;10.80;99.90;;;;;;4962556;28;20058;-63
2023/05/07 08:10:22;;;;;;;26.80;21.20;;;10.80;99.90;;;;;;4972720;28;20081;-64
2023/05/07 08:12:49;;;;;;;38.70;33.20;;;10.90;99.90;;;;;;4972511;28;20532;-63
2023/05/07 08:15:15;;;;;;;39.90;31.35;;;10.90;99.90;;;;;;4950268;28;20140;-63
2023/05/07 08:17:41;;;;;;;39.38;33.05;;;10.90;99.90;;;;;;4970806;28;20537;-64
2023/05/07 08:20:07;;;;;;;31.63;25.02;;;11.10;99.90;;;;;;4953352;28;20594;-64
2023/05/07 08:22:34;;;;;;;25.48;20.02;;;11.10;99.90;;;;;;4937155;28;20049;-63
2023/05/07 08:25:00;;;;;;;36.83;31.33;;;11.20;99.90;;;;;;4951911;28;20130;-63
2023/05/07 08:27:26;;;;;;;34.78;28.73;;;11.20;99.90;;;;;;4952576;28;20806;-64
2023/05/07 08:29:53;;;;;;;28.45;23.38;;;11.30;99.90;;;;;;4952109;28;20045;-65
2023/05/07 08:32:18;;;;;;;33.40;27.67;;;11.30;99.90;;;;;;4937812;28;20072;-64
2023/05/07 08:34:44;;;;;;;29.70;25.90;;;11.40;99.90;;;;;;4927934;28;20038;-64
2023/05/07 08:37:10;;;;;;;25.67;19.70;;;11.50;75.60;;;;;;4975040;28;20150;-65
2023/05/07 08:39:35;;;;;;;23.15;20.70;;;11.40;99.90;;;;;;4966671;28;20574;-64
2023/05/07 08:42:06;;;;;;;23.52;18.67;;;11.50;91.70;;;;;;4971768;28;20520;-64
2023/05/07 08:44:37;;;;;;;21.77;18.63;;;11.50;99.90;;;;;;4974521;28;20220;-65
2023/05/07 08:47:05;;;;;;;20.02;17.13;;;11.50;32.10;;;;;;4995300;28;20133;-65
2023/05/07 08:49:33;;;;;;;29.27;20.60;;;11.50;68.70;;;;;;4973160;28;20302;-65
2023/05/07 08:51:59;;;;;;;30.58;27.10;;;11.60;12.90;;;;;;5008149;28;20042;-64
2023/05/07 08:54:25;;;;;;;24.25;20.20;;;11.60;36.70;;;;;;4973997;28;20057;-64
2023/05/07 08:56:51;;;;;;;32.67;29.30;;;11.60;97.00;;;;;;4975119;28;20053;-64
2023/05/07 08:59:17;;;;;;;28.75;25.65;;;11.80;46.10;;;;;;4962589;28;20209;-65
2023/05/07 09:01:43;;;;;;;20.23;12.00;;;11.90;9.20;;;;;;5014144;28;20042;-65
2023/05/07 09:04:09;;;;;;;27.40;24.60;;;11.90;1.00;;;;;;4989761;28;20042;-63
2023/05/07 09:06:35;;;;;;;23.67;21.13;;;11.80;1.00;;;;;;4989574;28;20042;-63
2023/05/07 09:09:01;;;;;;;22.45;19.55;;;11.90;1.00;;;;;;4992606;28;20096;-63
2023/05/07 09:11:27;;;;;;;27.15;24.38;;;11.90;1.00;;;;;;4957808;28;20994;-65
2023/05/07 09:13:57;;;;;;;29.17;26.27;;;12.00;1.00;;;;;;4975525;28;20137;-63
2023/05/07 09:16:25;;;;;;;25.33;22.80;;;12.10;1.00;;;;;;4977351;28;20049;-63
2023/05/07 09:18:54;;;;;;;29.65;26.70;;;12.10;1.00;;;;;;4953651;28;20894;-64
2023/05/07 09:21:22;;;;;;;26.30;23.52;;;12.20;1.00;;;;;;4967668;28;20081;-63
2023/05/07 09:23:50;;;;;;;32.22;29.15;;;12.20;1.00;;;;;;4971971;28;20046;-63
2023/05/07 09:26:16;;;;;;;34.58;31.23;;;12.30;1.00;;;;;;5003408;28;20038;-65
2023/05/07 09:28:46;;;;;;;31.92;28.92;;;12.40;1.00;;;;;;4938485;28;20046;-64
2023/05/07 09:31:14;;;;;;;26.60;23.83;;;12.50;1.00;;;;;;4962692;28;20082;-64
2023/05/07 09:33:40;;;;;;;27.73;24.85;;;12.50;1.00;;;;;;4992189;28;20456;-64
2023/05/07 09:36:08;;;;;;;28.00;25.33;;;12.60;1.00;;;;;;4991745;28;20137;-65
2023/05/07 09:38:35;;;;;;;21.90;19.60;;;12.60;99.90;;;;;;4982094;28;20038;-64
2023/05/07 09:41:09;;;;;;;25.02;22.40;;;12.60;99.90;;;;;;4980988;28;20108;-64
2023/05/07 09:43:36;;;;;;;23.52;21.15;;;12.50;99.90;;;;;;4963743;28;20288;-64
2023/05/07 09:46:16;;;;;;;32.83;29.63;;;12.50;1.00;;;;;;5009864;28;20220;-64
2023/05/07 09:48:44;;;;;;;32.63;29.30;;;12.60;1.00;;;;;;4974006;28;20104;-64
2023/05/07 09:51:21;;;;;;;23.95;21.45;;;12.60;1.00;;;;;;4979804;28;20299;-64
2023/05/07 09:53:48;;;;;;;27.13;24.38;;;12.70;1.00;;;;;;5010730;28;20038;-63
2023/05/07 09:56:15;;;;;;;30.85;27.85;;;12.70;99.90;;;;;;5014607;28;20514;-64
2023/05/07 09:58:42;;;;;;;29.77;26.83;;;12.80;1.00;;;;;;4980656;28;20624;-63
2023/05/07 10:01:08;;;;;;;29.58;26.73;;;12.80;1.00;;;;;;5017378;28;20117;-64
2023/05/07 10:03:36;;;;;;;24.33;21.85;;;12.80;99.90;;;;;;4975665;28;20054;-63
2023/05/07 10:06:03;;;;;;;27.48;24.67;;;12.90;1.00;;;;;;4981659;28;20050;-63
2023/05/07 10:08:30;;;;;;;28.58;25.88;;;12.90;1.00;;;;;;4990573;28;20046;-63
2023/05/07 10:10:56;;;;;;;25.65;22.90;;;13.00;1.00;;;;;;4973491;28;20541;-64
2023/05/07 10:13:22;;;;;;;29.25;26.45;;;13.00;1.00;;;;;;4957267;28;20046;-64
2023/05/07 10:15:48;;;;;;;30.05;27.15;;;13.00;1.00;;;;;;4974892;28;20034;-64
2023/05/07 10:18:15;;;;;;;27.55;24.73;;;13.20;1.00;;;;;;4959206;28;20062;-64
2023/05/07 10:20:44;;;;;;;32.72;29.58;;;13.30;99.90;;;;;;4974570;28;20097;-64
2023/05/07 10:23:17;;;;;;;33.65;30.55;;;13.20;99.90;;;;;;4976684;28;20057;-64
2023/05/07 10:25:43;;;;;;;27.13;24.48;;;13.40;99.90;;;;;;4964442;28;20815;-65
2023/05/07 10:28:11;;;;;;;31.20;28.13;;;13.30;99.90;;;;;;5012210;28;20136;-64
2023/05/07 10:30:55;;;;;;;27.45;24.83;;;13.50;99.90;;;;;;4980165;28;20883;-64
2023/05/07 10:33:25;;;;;;;19.70;17.70;;;13.70;99.90;;;;;;4995413;28;20046;-65
2023/05/07 10:35:58;;;;;;;28.05;25.33;;;13.80;99.90;;;;;;5011768;28;20408;-63
2023/05/07 10:38:25;;;;;;;30.13;27.40;;;13.80;99.90;;;;;;4976138;28;20038;-63
2023/05/07 10:40:51;;;;;;;30.42;27.67;;;14.00;99.90;;;;;;4963134;28;20120;-64
2023/05/07 10:43:17;;;;;;;23.40;21.10;;;14.00;99.90;;;;;;4995207;28;20046;-63
2023/05/07 10:45:42;;;;;;;28.95;26.23;;;14.00;99.90;;;;;;4961649;28;20472;-64
2023/05/07 10:48:09;;;;;;;26.83;24.27;;;14.00;99.90;;;;;;4978539;28;20322;-64
2023/05/07 10:50:37;;;;;;;29.88;26.95;;;14.00;99.90;;;;;;4978359;28;20046;-63
2023/05/07 10:53:18;;;;;;;23.00;20.75;;;13.90;99.90;;;;;;4948039;28;20116;-64
2023/05/07 10:55:46;;;;;;;22.10;19.85;;;14.00;99.90;;;;;;4983699;28;20042;-64
2023/05/07 10:58:28;;;;;;;24.48;22.10;;;14.20;99.90;;;;;;4969622;28;20042;-65
2023/05/07 11:01:01;;;;;;;24.73;22.42;;;14.30;99.90;;;;;;4981573;28;20054;-64
2023/05/07 11:03:28;;;;;;;25.15;22.77;;;14.30;99.90;;;;;;4983508;28;20257;-64
2023/05/07 11:06:14;;;;;;;22.65;20.58;;;14.20;99.90;;;;;;4977059;28;20797;-64
2023/05/07 11:08:52;;;;;;;27.52;24.85;;;14.00;99.90;;;;;;4982928;28;20217;-64
2023/05/07 11:11:19;;;;;;;24.83;22.52;;;13.90;99.90;;;;;;4981410;28;20124;-64
2023/05/07 11:13:46;;;;;;;24.58;22.10;;;14.00;99.90;;;;;;4977486;28;20050;-66
2023/05/07 11:16:26;;;;;;;30.95;28.00;;;14.40;99.90;;;;;;4977743;28;20089;-63
2023/05/07 11:18:54;;;;;;;33.55;30.55;;;14.70;99.90;;;;;;4959313;28;20047;-64
2023/05/07 11:21:40;;;;;;;27.10;24.60;;;14.90;99.90;;;;;;4968944;28;20037;-64
2023/05/07 11:24:07;;;;;;;25.38;23.05;;;15.20;99.90;;;;;;4977850;28;20042;-64
2023/05/07 11:26:50;;;;;;;26.42;24.13;;;15.20;99.90;;;;;;5001180;28;20050;-64
2023/05/07 11:29:21;;;;;;;21.90;19.77;;;15.50;99.90;;;;;;4975636;28;20074;-64
2023/05/07 11:31:51;;;;;;;22.00;20.00;;;15.50;99.90;;;;;;4979747;28;20057;-64
2023/05/07 11:34:25;;;;;;;23.50;21.42;;;15.40;99.90;;;;;;4965028;28;20046;-63
2023/05/07 11:36:51;;;;;;;21.33;19.33;;;15.30;99.90;;;;;;4999689;28;20117;-64
2023/05/07 11:39:27;;;;;;;21.90;19.98;;;15.10;99.90;;;;;;4998221;28;20042;-64
2023/05/07 11:41:53;;;;;;;23.70;21.52;;;15.20;99.90;;;;;;4976544;28;20041;-64
2023/05/07 11:44:19;;;;;;;27.83;25.33;;;15.40;99.90;;;;;;4982000;28;20427;-63
2023/05/07 11:46:45;;;;;;;24.05;21.75;;;15.80;99.90;;;;;;5012636;28;20170;-64
2023/05/07 11:49:11;;;;;;;26.40;24.05;;;16.00;99.90;;;;;;4986599;28;20334;-64
2023/05/07 11:51:38;;;;;;;29.83;27.08;;;15.90;99.90;;;;;;4955225;28;20661;-64
2023/05/07 11:54:08;;;;;;;27.92;25.33;;;15.80;99.90;;;;;;4954185;28;20335;-64
2023/05/07 11:56:38;;;;;;;25.58;23.27;;;15.70;99.90;;;;;;4972717;28;20072;-65
2023/05/07 11:59:05;;;;;;;20.08;18.10;;;15.80;99.90;;;;;;5000748;28;20613;-64
2023/05/07 12:01:30;;;;;;;24.42;22.33;;;15.90;99.90;;;;;;4971304;28;20038;-65
2023/05/07 12:03:56;;;;;;;20.05;18.45;;;15.90;99.90;;;;;;4937690;28;20064;-67
2023/05/07 12:06:22;;;;;;;16.60;15.30;;;15.80;99.90;;;;;;4969816;28;20121;-66
2023/05/07 12:08:47;;;;;;;16.35;14.88;;;16.30;99.90;;;;;;4969136;28;20415;-65
2023/05/07 12:11:24;;;;;;;16.55;15.15;;;16.60;99.90;;;;;;4986513;28;20038;-65
2023/05/07 12:13:51;;;;;;;16.73;15.23;;;17.00;99.90;;;;;;5003934;28;20648;-65
2023/05/07 12:16:17;;;;;;;16.85;15.45;;;17.20;99.90;;;;;;4995299;28;20052;-65
2023/05/07 12:18:44;;;;;;;17.20;15.60;;;17.20;99.90;;;;;;4967943;28;20053;-65
2023/05/07 12:21:11;;;;;;;18.00;16.63;;;17.30;99.90;;;;;;4986088;28;20392;-66
2023/05/07 12:23:38;;;;;;;18.10;16.67;;;17.30;99.90;;;;;;4969142;28;20039;-66
2023/05/07 12:26:04;;;;;;;19.58;18.00;;;17.60;99.90;;;;;;4957670;28;20041;-65
2023/05/07 12:28:31;;;;;;;21.35;19.65;;;17.50;99.90;;;;;;4976077;28;20041;-65
2023/05/07 12:30:57;;;;;;;20.98;19.25;;;17.60;99.90;;;;;;4970954;28;20038;-65